sensor_id;sensor_type;location;lat;lon;timestamp;P1;durP1;ratioP1;P2;durP2;ratioP2
51248;SDS011;39642;47.556;18.728;2023-08-08T00:01:23;2.97;;;1.15;;
51248;SDS011;39642;47.556;18.728;2023-08-08T00:03:49;2.70;;;1.08;;
51248;SDS011;39642;47.556;18.728;2023-08-08T00:06:15;3.65;;;1.20;;
51248;SDS011;39642;47.556;18.728;2023-08-08T00:08:41;2.03;;;0.90;;
51248;SDS011;39642;47.556;18.728;2023-08-08T00:11:07;4.03;;;1.20;;
51248;SDS011;39642;47.556;18.728;2023-08-08T00:13:32;2.37;;;1.08;;
51248;SDS011;39642;47.556;18.728;2023-08-08T00:15:58;2.05;;;1.05;;
51248;SDS011;39642;47.556;18.728;2023-08-08T00:18:24;2.05;;;1.02;;
51248;SDS011;39642;47.556;18.728;2023-08-08T00:20:50;1.62;;;1.00;;
51248;SDS011;39642;47.556;18.728;2023-08-08T00:23:16;4.22;;;1.17;;
51248;SDS011;39642;47.556;18.728;2023-08-08T00:25:42;2.58;;;1.10;;
51248;SDS011;39642;47.556;18.728;2023-08-08T00:28:08;2.42;;;1.02;;
51248;SDS011;39642;47.556;18.728;2023-08-08T00:30:33;2.67;;;1.12;;
51248;SDS011;39642;47.556;18.728;2023-08-08T00:32:59;2.83;;;1.10;;
51248;SDS011;39642;47.556;18.728;2023-08-08T00:35:25;2.15;;;1.10;;
51248;SDS011;39642;47.556;18.728;2023-08-08T00:37:51;2.70;;;1.05;;
51248;SDS011;39642;47.556;18.728;2023-08-08T00:40:17;3.55;;;1.17;;
51248;SDS011;39642;47.556;18.728;2023-08-08T00:42:43;2.50;;;1.10;;
51248;SDS011;39642;47.556;18.728;2023-08-08T00:45:09;2.75;;;1.00;;
51248;SDS011;39642;47.556;18.728;2023-08-08T00:47:35;3.10;;;1.20;;
51248;SDS011;39642;47.556;18.728;2023-08-08T00:50:01;2.58;;;1.10;;
51248;SDS011;39642;47.556;18.728;2023-08-08T00:52:29;3.12;;;1.25;;
51248;SDS011;39642;47.556;18.728;2023-08-08T00:54:56;2.97;;;1.05;;
51248;SDS011;39642;47.556;18.728;2023-08-08T00:57:22;2.87;;;1.08;;
51248;SDS011;39642;47.556;18.728;2023-08-08T00:59:48;2.92;;;1.20;;
51248;SDS011;39642;47.556;18.728;2023-08-08T01:02:13;2.37;;;1.10;;
51248;SDS011;39642;47.556;18.728;2023-08-08T01:04:39;2.33;;;1.05;;
51248;SDS011;39642;47.556;18.728;2023-08-08T01:07:16;3.62;;;1.20;;
51248;SDS011;39642;47.556;18.728;2023-08-08T01:12:18;3.08;;;1.17;;
51248;SDS011;39642;47.556;18.728;2023-08-08T01:14:45;2.10;;;1.02;;
51248;SDS011;39642;47.556;18.728;2023-08-08T01:17:11;3.05;;;1.20;;
51248;SDS011;39642;47.556;18.728;2023-08-08T01:19:39;3.60;;;1.40;;
51248;SDS011;39642;47.556;18.728;2023-08-08T01:22:06;3.85;;;1.17;;
51248;SDS011;39642;47.556;18.728;2023-08-08T01:24:37;2.87;;;1.12;;
51248;SDS011;39642;47.556;18.728;2023-08-08T01:27:04;2.40;;;1.10;;
51248;SDS011;39642;47.556;18.728;2023-08-08T01:29:31;1.83;;;1.10;;
51248;SDS011;39642;47.556;18.728;2023-08-08T01:31:57;1.55;;;1.00;;
51248;SDS011;39642;47.556;18.728;2023-08-08T01:34:23;1.83;;;1.10;;
51248;SDS011;39642;47.556;18.728;2023-08-08T01:36:55;3.55;;;1.20;;
51248;SDS011;39642;47.556;18.728;2023-08-08T01:39:27;3.50;;;1.10;;
51248;SDS011;39642;47.556;18.728;2023-08-08T01:41:56;3.35;;;1.10;;
51248;SDS011;39642;47.556;18.728;2023-08-08T01:44:22;2.60;;;1.12;;
51248;SDS011;39642;47.556;18.728;2023-08-08T01:46:51;1.90;;;0.95;;
51248;SDS011;39642;47.556;18.728;2023-08-08T01:49:18;2.58;;;1.12;;
51248;SDS011;39642;47.556;18.728;2023-08-08T01:51:44;2.83;;;1.20;;
51248;SDS011;39642;47.556;18.728;2023-08-08T01:54:10;3.03;;;1.10;;
51248;SDS011;39642;47.556;18.728;2023-08-08T01:56:36;2.22;;;1.12;;
51248;SDS011;39642;47.556;18.728;2023-08-08T01:59:02;3.45;;;1.20;;
51248;SDS011;39642;47.556;18.728;2023-08-08T02:01:28;3.10;;;1.20;;
51248;SDS011;39642;47.556;18.728;2023-08-08T02:03:54;2.87;;;0.98;;
51248;SDS011;39642;47.556;18.728;2023-08-08T02:06:20;2.37;;;1.20;;
51248;SDS011;39642;47.556;18.728;2023-08-08T02:08:45;4.37;;;1.17;;
51248;SDS011;39642;47.556;18.728;2023-08-08T02:11:11;2.72;;;1.20;;
51248;SDS011;39642;47.556;18.728;2023-08-08T02:13:37;2.85;;;1.20;;
51248;SDS011;39642;47.556;18.728;2023-08-08T02:16:03;4.20;;;1.30;;
51248;SDS011;39642;47.556;18.728;2023-08-08T02:18:29;2.05;;;1.00;;
51248;SDS011;39642;47.556;18.728;2023-08-08T02:20:55;3.70;;;1.10;;
51248;SDS011;39642;47.556;18.728;2023-08-08T02:23:21;4.22;;;1.30;;
51248;SDS011;39642;47.556;18.728;2023-08-08T02:25:47;1.73;;;1.00;;
51248;SDS011;39642;47.556;18.728;2023-08-08T02:28:12;2.92;;;1.02;;
51248;SDS011;39642;47.556;18.728;2023-08-08T02:30:38;2.33;;;1.10;;
51248;SDS011;39642;47.556;18.728;2023-08-08T02:33:04;3.83;;;1.23;;
51248;SDS011;39642;47.556;18.728;2023-08-08T02:35:30;3.12;;;1.20;;
51248;SDS011;39642;47.556;18.728;2023-08-08T02:37:56;3.28;;;1.35;;
51248;SDS011;39642;47.556;18.728;2023-08-08T02:40:22;3.55;;;1.20;;
51248;SDS011;39642;47.556;18.728;2023-08-08T02:42:49;3.40;;;1.27;;
51248;SDS011;39642;47.556;18.728;2023-08-08T02:45:15;2.58;;;1.10;;
51248;SDS011;39642;47.556;18.728;2023-08-08T02:47:41;2.83;;;1.17;;
51248;SDS011;39642;47.556;18.728;2023-08-08T02:50:07;3.78;;;1.30;;
51248;SDS011;39642;47.556;18.728;2023-08-08T02:52:33;2.70;;;1.15;;
51248;SDS011;39642;47.556;18.728;2023-08-08T02:54:59;2.20;;;1.08;;
51248;SDS011;39642;47.556;18.728;2023-08-08T02:57:25;1.80;;;1.10;;
51248;SDS011;39642;47.556;18.728;2023-08-08T02:59:51;3.08;;;1.30;;
51248;SDS011;39642;47.556;18.728;2023-08-08T03:02:16;1.83;;;1.00;;
51248;SDS011;39642;47.556;18.728;2023-08-08T03:04:42;2.97;;;1.12;;
51248;SDS011;39642;47.556;18.728;2023-08-08T03:07:08;4.62;;;1.30;;
51248;SDS011;39642;47.556;18.728;2023-08-08T03:09:34;3.35;;;1.20;;
51248;SDS011;39642;47.556;18.728;2023-08-08T03:12:00;3.67;;;1.25;;
51248;SDS011;39642;47.556;18.728;2023-08-08T03:14:26;4.68;;;1.27;;
51248;SDS011;39642;47.556;18.728;2023-08-08T03:16:52;3.03;;;1.17;;
51248;SDS011;39642;47.556;18.728;2023-08-08T03:19:17;2.30;;;1.00;;
51248;SDS011;39642;47.556;18.728;2023-08-08T03:21:43;2.83;;;1.27;;
51248;SDS011;39642;47.556;18.728;2023-08-08T03:24:09;3.55;;;1.20;;
51248;SDS011;39642;47.556;18.728;2023-08-08T03:26:35;3.10;;;1.20;;
51248;SDS011;39642;47.556;18.728;2023-08-08T03:29:01;3.58;;;1.33;;
51248;SDS011;39642;47.556;18.728;2023-08-08T03:31:27;3.25;;;1.20;;
51248;SDS011;39642;47.556;18.728;2023-08-08T03:33:53;3.60;;;1.37;;
51248;SDS011;39642;47.556;18.728;2023-08-08T03:36:19;2.45;;;1.10;;
51248;SDS011;39642;47.556;18.728;2023-08-08T03:38:46;2.90;;;1.20;;
51248;SDS011;39642;47.556;18.728;2023-08-08T03:41:12;5.12;;;1.30;;
51248;SDS011;39642;47.556;18.728;2023-08-08T03:43:39;2.58;;;1.10;;
51248;SDS011;39642;47.556;18.728;2023-08-08T03:46:05;4.75;;;1.30;;
51248;SDS011;39642;47.556;18.728;2023-08-08T03:48:31;3.87;;;1.30;;
51248;SDS011;39642;47.556;18.728;2023-08-08T03:50:57;4.45;;;1.37;;
51248;SDS011;39642;47.556;18.728;2023-08-08T03:53:23;2.37;;;1.20;;
51248;SDS011;39642;47.556;18.728;2023-08-08T03:55:49;3.33;;;1.20;;
51248;SDS011;39642;47.556;18.728;2023-08-08T03:58:15;2.30;;;1.05;;
51248;SDS011;39642;47.556;18.728;2023-08-08T04:00:41;3.55;;;1.30;;
51248;SDS011;39642;47.556;18.728;2023-08-08T04:03:14;3.47;;;1.40;;
51248;SDS011;39642;47.556;18.728;2023-08-08T04:05:43;3.35;;;1.15;;
51248;SDS011;39642;47.556;18.728;2023-08-08T04:08:11;4.40;;;1.30;;
51248;SDS011;39642;47.556;18.728;2023-08-08T04:10:38;5.25;;;1.40;;
51248;SDS011;39642;47.556;18.728;2023-08-08T04:13:03;2.50;;;1.15;;
51248;SDS011;39642;47.556;18.728;2023-08-08T04:15:29;4.43;;;1.37;;
51248;SDS011;39642;47.556;18.728;2023-08-08T04:17:55;4.12;;;1.30;;
51248;SDS011;39642;47.556;18.728;2023-08-08T04:20:21;4.18;;;1.20;;
51248;SDS011;39642;47.556;18.728;2023-08-08T04:22:47;4.62;;;1.40;;
51248;SDS011;39642;47.556;18.728;2023-08-08T04:25:14;3.78;;;1.20;;
51248;SDS011;39642;47.556;18.728;2023-08-08T04:27:40;3.50;;;1.20;;
51248;SDS011;39642;47.556;18.728;2023-08-08T04:30:06;4.00;;;1.30;;
51248;SDS011;39642;47.556;18.728;2023-08-08T04:32:33;3.08;;;1.30;;
51248;SDS011;39642;47.556;18.728;2023-08-08T04:34:59;2.83;;;1.30;;
51248;SDS011;39642;47.556;18.728;2023-08-08T04:37:25;3.42;;;1.23;;
51248;SDS011;39642;47.556;18.728;2023-08-08T04:39:50;3.58;;;1.30;;
51248;SDS011;39642;47.556;18.728;2023-08-08T04:42:16;3.33;;;1.30;;
51248;SDS011;39642;47.556;18.728;2023-08-08T04:44:42;3.75;;;1.30;;
51248;SDS011;39642;47.556;18.728;2023-08-08T04:47:08;3.90;;;1.27;;
51248;SDS011;39642;47.556;18.728;2023-08-08T04:49:34;3.10;;;1.30;;
51248;SDS011;39642;47.556;18.728;2023-08-08T04:52:00;4.30;;;1.42;;
51248;SDS011;39642;47.556;18.728;2023-08-08T04:54:26;3.42;;;1.30;;
51248;SDS011;39642;47.556;18.728;2023-08-08T04:56:51;4.37;;;1.40;;
51248;SDS011;39642;47.556;18.728;2023-08-08T04:59:17;3.78;;;1.20;;
51248;SDS011;39642;47.556;18.728;2023-08-08T05:01:43;2.47;;;1.10;;
51248;SDS011;39642;47.556;18.728;2023-08-08T05:04:09;3.37;;;1.37;;
51248;SDS011;39642;47.556;18.728;2023-08-08T05:06:35;4.55;;;1.37;;
51248;SDS011;39642;47.556;18.728;2023-08-08T05:09:01;5.53;;;1.37;;
51248;SDS011;39642;47.556;18.728;2023-08-08T05:11:27;3.62;;;1.35;;
51248;SDS011;39642;47.556;18.728;2023-08-08T05:13:53;5.70;;;1.55;;
51248;SDS011;39642;47.556;18.728;2023-08-08T05:16:19;4.12;;;1.35;;
51248;SDS011;39642;47.556;18.728;2023-08-08T05:18:45;4.32;;;1.40;;
51248;SDS011;39642;47.556;18.728;2023-08-08T05:21:11;3.55;;;1.30;;
51248;SDS011;39642;47.556;18.728;2023-08-08T05:23:37;2.67;;;1.20;;
51248;SDS011;39642;47.556;18.728;2023-08-08T05:26:02;3.20;;;1.20;;
51248;SDS011;39642;47.556;18.728;2023-08-08T05:28:28;6.37;;;1.55;;
51248;SDS011;39642;47.556;18.728;2023-08-08T05:30:55;3.78;;;1.27;;
51248;SDS011;39642;47.556;18.728;2023-08-08T05:33:22;5.35;;;1.50;;
51248;SDS011;39642;47.556;18.728;2023-08-08T05:35:48;3.92;;;1.40;;
51248;SDS011;39642;47.556;18.728;2023-08-08T05:38:13;4.25;;;1.40;;
51248;SDS011;39642;47.556;18.728;2023-08-08T05:40:40;4.65;;;1.40;;
51248;SDS011;39642;47.556;18.728;2023-08-08T05:43:06;5.97;;;1.50;;
51248;SDS011;39642;47.556;18.728;2023-08-08T05:45:33;2.80;;;1.23;;
51248;SDS011;39642;47.556;18.728;2023-08-08T05:48:00;4.32;;;1.40;;
51248;SDS011;39642;47.556;18.728;2023-08-08T05:53:37;8.77;;;2.12;;
51248;SDS011;39642;47.556;18.728;2023-08-08T05:56:04;4.62;;;1.50;;
51248;SDS011;39642;47.556;18.728;2023-08-08T05:58:30;6.15;;;1.60;;
51248;SDS011;39642;47.556;18.728;2023-08-08T06:00:56;7.45;;;1.98;;
51248;SDS011;39642;47.556;18.728;2023-08-08T06:03:21;6.68;;;1.77;;
51248;SDS011;39642;47.556;18.728;2023-08-08T06:05:47;7.65;;;1.98;;
51248;SDS011;39642;47.556;18.728;2023-08-08T06:08:13;6.32;;;1.75;;
51248;SDS011;39642;47.556;18.728;2023-08-08T06:10:42;5.03;;;1.60;;
51248;SDS011;39642;47.556;18.728;2023-08-08T06:13:08;12.73;;;3.15;;
51248;SDS011;39642;47.556;18.728;2023-08-08T06:15:34;8.98;;;2.15;;
51248;SDS011;39642;47.556;18.728;2023-08-08T06:17:59;14.50;;;3.60;;
51248;SDS011;39642;47.556;18.728;2023-08-08T06:20:25;11.77;;;2.90;;
51248;SDS011;39642;47.556;18.728;2023-08-08T06:22:51;12.40;;;3.08;;
51248;SDS011;39642;47.556;18.728;2023-08-08T06:25:17;13.20;;;2.67;;
51248;SDS011;39642;47.556;18.728;2023-08-08T06:27:43;12.57;;;3.05;;
51248;SDS011;39642;47.556;18.728;2023-08-08T06:30:09;17.48;;;4.15;;
51248;SDS011;39642;47.556;18.728;2023-08-08T06:32:35;13.52;;;3.72;;
51248;SDS011;39642;47.556;18.728;2023-08-08T06:35:01;12.82;;;3.30;;
51248;SDS011;39642;47.556;18.728;2023-08-08T06:37:27;10.13;;;2.50;;
51248;SDS011;39642;47.556;18.728;2023-08-08T06:39:53;13.23;;;2.87;;
51248;SDS011;39642;47.556;18.728;2023-08-08T06:42:19;10.63;;;2.40;;
51248;SDS011;39642;47.556;18.728;2023-08-08T06:44:45;7.85;;;2.25;;
51248;SDS011;39642;47.556;18.728;2023-08-08T06:47:11;7.35;;;1.92;;
51248;SDS011;39642;47.556;18.728;2023-08-08T06:49:37;8.55;;;2.30;;
51248;SDS011;39642;47.556;18.728;2023-08-08T06:52:04;11.95;;;2.70;;
51248;SDS011;39642;47.556;18.728;2023-08-08T06:54:31;9.00;;;2.05;;
51248;SDS011;39642;47.556;18.728;2023-08-08T06:56:57;6.32;;;2.03;;
51248;SDS011;39642;47.556;18.728;2023-08-08T06:59:23;12.27;;;2.28;;
51248;SDS011;39642;47.556;18.728;2023-08-08T07:01:50;9.00;;;2.00;;
51248;SDS011;39642;47.556;18.728;2023-08-08T07:04:16;13.25;;;3.00;;
51248;SDS011;39642;47.556;18.728;2023-08-08T07:06:43;8.35;;;2.37;;
51248;SDS011;39642;47.556;18.728;2023-08-08T07:09:10;8.60;;;2.33;;
51248;SDS011;39642;47.556;18.728;2023-08-08T07:11:37;8.38;;;2.30;;
51248;SDS011;39642;47.556;18.728;2023-08-08T07:14:03;12.73;;;2.55;;
51248;SDS011;39642;47.556;18.728;2023-08-08T07:16:29;8.63;;;1.83;;
51248;SDS011;39642;47.556;18.728;2023-08-08T07:18:55;9.18;;;2.42;;
51248;SDS011;39642;47.556;18.728;2023-08-08T07:21:20;8.43;;;2.15;;
51248;SDS011;39642;47.556;18.728;2023-08-08T07:23:46;8.15;;;2.15;;
51248;SDS011;39642;47.556;18.728;2023-08-08T07:26:12;9.57;;;2.28;;
51248;SDS011;39642;47.556;18.728;2023-08-08T07:28:38;8.27;;;2.17;;
51248;SDS011;39642;47.556;18.728;2023-08-08T07:31:04;10.30;;;2.35;;
51248;SDS011;39642;47.556;18.728;2023-08-08T07:33:30;9.13;;;2.12;;
51248;SDS011;39642;47.556;18.728;2023-08-08T07:35:56;9.48;;;2.25;;
51248;SDS011;39642;47.556;18.728;2023-08-08T07:38:22;8.30;;;2.03;;
51248;SDS011;39642;47.556;18.728;2023-08-08T07:40:48;7.72;;;1.62;;
51248;SDS011;39642;47.556;18.728;2023-08-08T07:43:14;8.45;;;1.92;;
51248;SDS011;39642;47.556;18.728;2023-08-08T07:45:40;6.95;;;1.70;;
51248;SDS011;39642;47.556;18.728;2023-08-08T07:48:07;5.12;;;1.55;;
51248;SDS011;39642;47.556;18.728;2023-08-08T07:50:33;5.82;;;1.67;;
51248;SDS011;39642;47.556;18.728;2023-08-08T07:52:58;5.82;;;1.60;;
51248;SDS011;39642;47.556;18.728;2023-08-08T07:55:24;4.95;;;1.50;;
51248;SDS011;39642;47.556;18.728;2023-08-08T07:57:51;5.95;;;1.60;;
51248;SDS011;39642;47.556;18.728;2023-08-08T08:00:17;6.47;;;1.62;;
51248;SDS011;39642;47.556;18.728;2023-08-08T08:02:44;6.70;;;1.80;;
51248;SDS011;39642;47.556;18.728;2023-08-08T08:05:10;6.28;;;1.70;;
51248;SDS011;39642;47.556;18.728;2023-08-08T08:07:37;6.10;;;1.40;;
51248;SDS011;39642;47.556;18.728;2023-08-08T08:10:04;6.18;;;1.80;;
51248;SDS011;39642;47.556;18.728;2023-08-08T08:12:32;7.10;;;1.85;;
51248;SDS011;39642;47.556;18.728;2023-08-08T08:14:58;6.22;;;1.77;;
51248;SDS011;39642;47.556;18.728;2023-08-08T08:17:24;6.00;;;1.70;;
51248;SDS011;39642;47.556;18.728;2023-08-08T08:19:50;7.80;;;1.73;;
51248;SDS011;39642;47.556;18.728;2023-08-08T08:22:17;5.45;;;1.62;;
51248;SDS011;39642;47.556;18.728;2023-08-08T08:24:43;6.53;;;1.67;;
51248;SDS011;39642;47.556;18.728;2023-08-08T08:27:09;6.32;;;1.70;;
51248;SDS011;39642;47.556;18.728;2023-08-08T08:29:34;6.65;;;1.73;;
51248;SDS011;39642;47.556;18.728;2023-08-08T08:32:00;7.22;;;1.70;;
51248;SDS011;39642;47.556;18.728;2023-08-08T08:34:26;6.97;;;1.80;;
51248;SDS011;39642;47.556;18.728;2023-08-08T08:36:52;6.60;;;1.73;;
51248;SDS011;39642;47.556;18.728;2023-08-08T08:39:18;6.47;;;1.70;;
51248;SDS011;39642;47.556;18.728;2023-08-08T08:41:46;8.68;;;1.80;;
51248;SDS011;39642;47.556;18.728;2023-08-08T08:44:14;5.35;;;1.60;;
51248;SDS011;39642;47.556;18.728;2023-08-08T08:46:42;8.43;;;2.10;;
51248;SDS011;39642;47.556;18.728;2023-08-08T08:49:08;6.57;;;1.75;;
51248;SDS011;39642;47.556;18.728;2023-08-08T08:51:35;4.78;;;1.70;;
51248;SDS011;39642;47.556;18.728;2023-08-08T08:54:02;6.57;;;1.60;;
51248;SDS011;39642;47.556;18.728;2023-08-08T08:56:28;5.82;;;1.60;;
51248;SDS011;39642;47.556;18.728;2023-08-08T08:58:55;7.28;;;2.00;;
51248;SDS011;39642;47.556;18.728;2023-08-08T09:01:21;5.97;;;1.75;;
51248;SDS011;39642;47.556;18.728;2023-08-08T09:03:49;6.47;;;1.80;;
51248;SDS011;39642;47.556;18.728;2023-08-08T09:06:15;5.22;;;1.77;;
51248;SDS011;39642;47.556;18.728;2023-08-08T09:08:42;7.62;;;1.80;;
51248;SDS011;39642;47.556;18.728;2023-08-08T09:11:08;6.93;;;1.70;;
51248;SDS011;39642;47.556;18.728;2023-08-08T09:13:37;6.97;;;1.70;;
51248;SDS011;39642;47.556;18.728;2023-08-08T09:16:05;6.97;;;1.80;;
51248;SDS011;39642;47.556;18.728;2023-08-08T09:18:32;5.97;;;1.75;;
51248;SDS011;39642;47.556;18.728;2023-08-08T09:20:58;7.05;;;1.90;;
51248;SDS011;39642;47.556;18.728;2023-08-08T09:23:24;6.55;;;1.80;;
51248;SDS011;39642;47.556;18.728;2023-08-08T09:25:50;6.03;;;1.70;;
51248;SDS011;39642;47.556;18.728;2023-08-08T09:28:17;5.78;;;1.70;;
51248;SDS011;39642;47.556;18.728;2023-08-08T09:30:43;7.87;;;1.90;;
51248;SDS011;39642;47.556;18.728;2023-08-08T09:33:09;7.07;;;1.77;;
51248;SDS011;39642;47.556;18.728;2023-08-08T09:35:38;9.57;;;2.00;;
51248;SDS011;39642;47.556;18.728;2023-08-08T09:38:04;7.47;;;2.05;;
51248;SDS011;39642;47.556;18.728;2023-08-08T09:40:30;7.22;;;1.77;;
51248;SDS011;39642;47.556;18.728;2023-08-08T09:42:57;7.68;;;2.00;;
51248;SDS011;39642;47.556;18.728;2023-08-08T09:45:24;6.57;;;1.90;;
51248;SDS011;39642;47.556;18.728;2023-08-08T09:47:50;6.68;;;1.80;;
51248;SDS011;39642;47.556;18.728;2023-08-08T09:50:17;8.63;;;2.20;;
51248;SDS011;39642;47.556;18.728;2023-08-08T09:52:45;10.10;;;2.67;;
51248;SDS011;39642;47.556;18.728;2023-08-08T09:55:12;8.13;;;2.25;;
51248;SDS011;39642;47.556;18.728;2023-08-08T09:57:39;8.25;;;2.45;;
51248;SDS011;39642;47.556;18.728;2023-08-08T10:00:06;11.27;;;2.35;;
51248;SDS011;39642;47.556;18.728;2023-08-08T10:02:37;7.03;;;2.00;;
51248;SDS011;39642;47.556;18.728;2023-08-08T10:05:06;7.72;;;2.40;;
51248;SDS011;39642;47.556;18.728;2023-08-08T10:07:32;22.73;;;6.12;;
51248;SDS011;39642;47.556;18.728;2023-08-08T10:09:58;10.90;;;3.50;;
51248;SDS011;39642;47.556;18.728;2023-08-08T10:12:25;20.05;;;5.35;;
51248;SDS011;39642;47.556;18.728;2023-08-08T10:14:52;11.85;;;3.87;;
51248;SDS011;39642;47.556;18.728;2023-08-08T10:17:18;16.77;;;4.00;;
51248;SDS011;39642;47.556;18.728;2023-08-08T10:19:51;10.85;;;3.95;;
51248;SDS011;39642;47.556;18.728;2023-08-08T10:22:21;16.02;;;4.57;;
51248;SDS011;39642;47.556;18.728;2023-08-08T10:24:51;12.98;;;4.12;;
51248;SDS011;39642;47.556;18.728;2023-08-08T10:27:31;13.05;;;4.47;;
51248;SDS011;39642;47.556;18.728;2023-08-08T10:30:09;15.88;;;5.30;;
51248;SDS011;39642;47.556;18.728;2023-08-08T10:32:39;17.20;;;4.87;;
51248;SDS011;39642;47.556;18.728;2023-08-08T10:35:06;16.42;;;4.82;;
51248;SDS011;39642;47.556;18.728;2023-08-08T10:37:33;14.90;;;4.65;;
51248;SDS011;39642;47.556;18.728;2023-08-08T10:40:00;16.40;;;5.70;;
51248;SDS011;39642;47.556;18.728;2023-08-08T10:42:29;13.20;;;4.15;;
51248;SDS011;39642;47.556;18.728;2023-08-08T10:44:57;14.43;;;4.47;;
51248;SDS011;39642;47.556;18.728;2023-08-08T10:47:24;16.67;;;5.30;;
51248;SDS011;39642;47.556;18.728;2023-08-08T10:50:03;19.60;;;6.10;;
51248;SDS011;39642;47.556;18.728;2023-08-08T10:52:32;17.83;;;5.07;;
51248;SDS011;39642;47.556;18.728;2023-08-08T10:55:01;12.25;;;4.03;;
51248;SDS011;39642;47.556;18.728;2023-08-08T10:57:28;13.57;;;4.25;;
51248;SDS011;39642;47.556;18.728;2023-08-08T10:59:56;11.23;;;3.20;;
51248;SDS011;39642;47.556;18.728;2023-08-08T11:02:42;10.60;;;3.10;;
51248;SDS011;39642;47.556;18.728;2023-08-08T11:05:09;12.15;;;3.42;;
51248;SDS011;39642;47.556;18.728;2023-08-08T11:07:35;10.05;;;3.28;;
51248;SDS011;39642;47.556;18.728;2023-08-08T11:10:02;11.07;;;3.42;;
51248;SDS011;39642;47.556;18.728;2023-08-08T11:12:29;9.82;;;3.17;;
51248;SDS011;39642;47.556;18.728;2023-08-08T11:14:55;12.13;;;3.55;;
51248;SDS011;39642;47.556;18.728;2023-08-08T11:17:20;10.65;;;3.40;;
51248;SDS011;39642;47.556;18.728;2023-08-08T11:19:46;12.65;;;4.07;;
51248;SDS011;39642;47.556;18.728;2023-08-08T11:22:12;9.65;;;3.10;;
51248;SDS011;39642;47.556;18.728;2023-08-08T11:24:38;10.40;;;3.53;;
51248;SDS011;39642;47.556;18.728;2023-08-08T11:27:04;14.10;;;4.20;;
51248;SDS011;39642;47.556;18.728;2023-08-08T11:29:30;20.73;;;6.93;;
51248;SDS011;39642;47.556;18.728;2023-08-08T11:31:57;29.17;;;9.25;;
51248;SDS011;39642;47.556;18.728;2023-08-08T11:34:25;41.40;;;12.88;;
51248;SDS011;39642;47.556;18.728;2023-08-08T11:36:51;96.60;;;22.80;;
51248;SDS011;39642;47.556;18.728;2023-08-08T11:39:17;72.22;;;20.98;;
51248;SDS011;39642;47.556;18.728;2023-08-08T11:41:43;59.25;;;18.23;;
51248;SDS011;39642;47.556;18.728;2023-08-08T11:44:10;76.85;;;22.35;;
51248;SDS011;39642;47.556;18.728;2023-08-08T11:46:43;83.80;;;22.10;;
51248;SDS011;39642;47.556;18.728;2023-08-08T11:49:11;56.83;;;16.40;;
51248;SDS011;39642;47.556;18.728;2023-08-08T11:51:40;75.12;;;20.35;;
51248;SDS011;39642;47.556;18.728;2023-08-08T11:54:09;36.05;;;11.95;;
51248;SDS011;39642;47.556;18.728;2023-08-08T11:56:35;46.33;;;14.10;;
51248;SDS011;39642;47.556;18.728;2023-08-08T11:59:02;61.05;;;17.52;;
51248;SDS011;39642;47.556;18.728;2023-08-08T12:01:30;38.17;;;12.68;;
51248;SDS011;39642;47.556;18.728;2023-08-08T12:03:57;64.18;;;18.60;;
51248;SDS011;39642;47.556;18.728;2023-08-08T12:06:22;47.70;;;16.02;;
51248;SDS011;39642;47.556;18.728;2023-08-08T12:08:54;33.10;;;11.57;;
51248;SDS011;39642;47.556;18.728;2023-08-08T12:11:20;59.30;;;17.35;;
51248;SDS011;39642;47.556;18.728;2023-08-08T12:13:46;17.40;;;6.80;;
51248;SDS011;39642;47.556;18.728;2023-08-08T12:16:13;31.90;;;10.90;;
51248;SDS011;39642;47.556;18.728;2023-08-08T12:18:39;70.32;;;20.77;;
51248;SDS011;39642;47.556;18.728;2023-08-08T12:21:06;19.35;;;7.57;;
51248;SDS011;39642;47.556;18.728;2023-08-08T12:23:33;24.92;;;8.38;;
51248;SDS011;39642;47.556;18.728;2023-08-08T12:26:02;23.42;;;8.63;;
51248;SDS011;39642;47.556;18.728;2023-08-08T12:28:29;14.48;;;5.28;;
51248;SDS011;39642;47.556;18.728;2023-08-08T12:30:55;12.35;;;4.87;;
51248;SDS011;39642;47.556;18.728;2023-08-08T12:33:20;12.63;;;4.47;;
51248;SDS011;39642;47.556;18.728;2023-08-08T12:35:47;12.73;;;5.07;;
51248;SDS011;39642;47.556;18.728;2023-08-08T12:38:14;12.40;;;4.95;;
51248;SDS011;39642;47.556;18.728;2023-08-08T12:40:40;11.27;;;4.32;;
51248;SDS011;39642;47.556;18.728;2023-08-08T12:43:06;12.50;;;4.70;;
51248;SDS011;39642;47.556;18.728;2023-08-08T12:45:32;11.88;;;4.20;;
51248;SDS011;39642;47.556;18.728;2023-08-08T12:47:58;11.73;;;4.45;;
51248;SDS011;39642;47.556;18.728;2023-08-08T12:50:24;12.98;;;4.05;;
51248;SDS011;39642;47.556;18.728;2023-08-08T12:52:50;11.02;;;4.43;;
51248;SDS011;39642;47.556;18.728;2023-08-08T12:55:16;12.98;;;4.45;;
51248;SDS011;39642;47.556;18.728;2023-08-08T12:57:45;11.20;;;4.40;;
51248;SDS011;39642;47.556;18.728;2023-08-08T13:00:11;11.75;;;4.37;;
51248;SDS011;39642;47.556;18.728;2023-08-08T13:02:38;10.93;;;4.25;;
51248;SDS011;39642;47.556;18.728;2023-08-08T13:05:04;11.25;;;4.10;;
51248;SDS011;39642;47.556;18.728;2023-08-08T13:07:32;11.48;;;3.97;;
51248;SDS011;39642;47.556;18.728;2023-08-08T13:09:59;11.73;;;4.12;;
51248;SDS011;39642;47.556;18.728;2023-08-08T13:12:25;11.57;;;4.07;;
51248;SDS011;39642;47.556;18.728;2023-08-08T13:14:51;11.95;;;4.20;;
51248;SDS011;39642;47.556;18.728;2023-08-08T13:17:16;12.88;;;4.10;;
51248;SDS011;39642;47.556;18.728;2023-08-08T13:19:42;10.38;;;3.75;;
51248;SDS011;39642;47.556;18.728;2023-08-08T13:22:08;10.23;;;3.72;;
51248;SDS011;39642;47.556;18.728;2023-08-08T13:24:34;10.65;;;3.60;;
51248;SDS011;39642;47.556;18.728;2023-08-08T13:27:00;10.98;;;3.90;;
51248;SDS011;39642;47.556;18.728;2023-08-08T13:29:26;11.93;;;4.00;;
51248;SDS011;39642;47.556;18.728;2023-08-08T13:31:52;12.40;;;3.80;;
51248;SDS011;39642;47.556;18.728;2023-08-08T13:34:18;10.82;;;3.62;;
51248;SDS011;39642;47.556;18.728;2023-08-08T13:36:44;10.73;;;3.72;;
51248;SDS011;39642;47.556;18.728;2023-08-08T13:39:10;9.98;;;3.37;;
51248;SDS011;39642;47.556;18.728;2023-08-08T13:41:36;9.45;;;3.35;;
51248;SDS011;39642;47.556;18.728;2023-08-08T13:44:02;9.10;;;3.35;;
51248;SDS011;39642;47.556;18.728;2023-08-08T13:46:28;10.48;;;3.45;;
51248;SDS011;39642;47.556;18.728;2023-08-08T13:48:54;12.10;;;3.70;;
51248;SDS011;39642;47.556;18.728;2023-08-08T13:51:20;9.48;;;3.33;;
51248;SDS011;39642;47.556;18.728;2023-08-08T13:53:46;10.73;;;3.83;;
51248;SDS011;39642;47.556;18.728;2023-08-08T13:56:14;10.13;;;3.42;;
51248;SDS011;39642;47.556;18.728;2023-08-08T13:58:40;9.85;;;3.50;;
51248;SDS011;39642;47.556;18.728;2023-08-08T14:01:06;11.88;;;3.90;;
51248;SDS011;39642;47.556;18.728;2023-08-08T14:03:32;11.10;;;3.72;;
51248;SDS011;39642;47.556;18.728;2023-08-08T14:05:58;10.20;;;3.50;;
51248;SDS011;39642;47.556;18.728;2023-08-08T14:08:24;10.63;;;3.65;;
51248;SDS011;39642;47.556;18.728;2023-08-08T14:10:50;9.85;;;3.25;;
51248;SDS011;39642;47.556;18.728;2023-08-08T14:13:16;10.75;;;3.40;;
51248;SDS011;39642;47.556;18.728;2023-08-08T14:15:44;10.98;;;3.30;;
51248;SDS011;39642;47.556;18.728;2023-08-08T14:18:10;9.70;;;3.17;;
51248;SDS011;39642;47.556;18.728;2023-08-08T14:20:36;9.45;;;3.35;;
51248;SDS011;39642;47.556;18.728;2023-08-08T14:23:03;9.77;;;3.17;;
51248;SDS011;39642;47.556;18.728;2023-08-08T14:25:29;9.40;;;3.00;;
51248;SDS011;39642;47.556;18.728;2023-08-08T14:27:55;10.32;;;3.00;;
51248;SDS011;39642;47.556;18.728;2023-08-08T14:30:22;9.43;;;3.12;;
51248;SDS011;39642;47.556;18.728;2023-08-08T14:32:51;9.48;;;2.87;;